createdAt,value
2022-09-01T00:00:15.696Z,15.1
2022-09-01T00:01:14.346Z,15.1
2022-09-01T00:02:16.058Z,15.1
2022-09-01T00:03:13.692Z,15.1
2022-09-01T00:04:19.680Z,15.1
2022-09-01T00:05:10.978Z,15.1
2022-09-01T00:06:19.321Z,15.1
2022-09-01T00:07:07.221Z,15.1
2022-09-01T00:08:20.726Z,15.2
2022-09-01T00:09:15.685Z,15.2
2022-09-01T00:10:11.553Z,15.1
2022-09-01T00:11:13.196Z,15.1
2022-09-01T00:12:16.517Z,15.1
2022-09-01T00:13:14.384Z,15.1
2022-09-01T00:14:36.451Z,15.2
2022-09-01T00:15:12.022Z,15.1
2022-09-01T00:16:14.572Z,15.1
2022-09-01T00:17:06.552Z,15.1
2022-09-01T00:18:14.538Z,15.1
2022-09-01T00:19:13.763Z,15.1
2022-09-01T00:20:20.220Z,15.1
2022-09-01T00:21:13.479Z,15.1
2022-09-01T00:22:17.188Z,15
2022-09-01T00:23:07.260Z,15
2022-09-01T00:24:16.345Z,15.1
2022-09-01T00:25:17.844Z,15.1
2022-09-01T00:26:12.734Z,15.1
2022-09-01T00:27:15.047Z,15.1
2022-09-01T00:28:12.010Z,15.2
2022-09-01T00:29:15.480Z,15.1
2022-09-01T00:30:16.786Z,15.1
2022-09-01T00:31:07.380Z,15.1
2022-09-01T00:32:14.295Z,15.1
2022-09-01T00:33:12.487Z,15.1
2022-09-01T00:34:17.360Z,15.1
2022-09-01T00:35:15.955Z,15
2022-09-01T00:36:07.541Z,15
2022-09-01T00:37:12.772Z,15
2022-09-01T00:38:15.356Z,15
2022-09-01T00:39:17.720Z,15
2022-09-01T00:40:13.812Z,15
2022-09-01T00:41:14.276Z,15.1
2022-09-01T00:42:16.039Z,15.1
2022-09-01T00:43:15.206Z,15.1
2022-09-01T00:44:15.190Z,15.1
2022-09-01T00:45:16.735Z,15.1
2022-09-01T00:46:14.429Z,15
2022-09-01T00:47:17.009Z,15
2022-09-01T00:48:09.474Z,15
2022-09-01T00:49:14.604Z,15.1
2022-09-01T00:50:10.277Z,15.1
2022-09-01T00:51:14.843Z,15.1
2022-09-01T00:52:12.755Z,15.1
2022-09-01T00:53:13.196Z,15.1
2022-09-01T00:54:10.059Z,15.1
2022-09-01T00:55:14.281Z,15.1
2022-09-01T00:56:12.615Z,15
2022-09-01T00:57:14.963Z,15
2022-09-01T00:58:23.962Z,15
2022-09-01T00:59:12.299Z,15.1
2022-09-01T01:00:19.291Z,15.1
2022-09-01T01:01:07.621Z,15.1
2022-09-01T01:02:12.264Z,15.1
2022-09-01T01:03:15.314Z,15.1
2022-09-01T01:04:10.844Z,15.1
2022-09-01T01:05:15.108Z,15.1
2022-09-01T01:06:17.369Z,15.1
2022-09-01T01:07:16.409Z,15
2022-09-01T01:08:14.095Z,15
2022-09-01T01:09:18.955Z,15
2022-09-01T01:10:14.507Z,15.1
2022-09-01T01:11:16.330Z,15.1
2022-09-01T01:12:15.722Z,15.1
2022-09-01T01:13:17.498Z,15.1
2022-09-01T01:14:13.003Z,15.1
2022-09-01T01:15:13.446Z,15.1
2022-09-01T01:16:18.720Z,15.1
2022-09-01T01:17:08.539Z,15.1
2022-09-01T01:18:14.406Z,14.9
2022-09-01T01:19:11.974Z,14.9
2022-09-01T01:20:15.250Z,15.1
2022-09-01T01:21:13.239Z,15.1
2022-09-01T01:22:06.698Z,15.1
2022-09-01T01:23:12.880Z,15.1
2022-09-01T01:24:18.644Z,15.1
2022-09-01T01:25:14.600Z,15.1
2022-09-01T01:26:14.977Z,15.1
2022-09-01T01:27:14.420Z,15.1
2022-09-01T01:28:14.824Z,15
2022-09-01T01:29:12.843Z,15
2022-09-01T01:30:16.430Z,15.1
2022-09-01T01:31:15.064Z,15.1
2022-09-01T01:32:11.664Z,15.1
2022-09-01T01:33:17.015Z,15.1
2022-09-01T01:34:13.782Z,15.1
2022-09-01T01:35:16.022Z,15.1
2022-09-01T01:36:14.748Z,15.1
2022-09-01T01:37:19.056Z,15.1
2022-09-01T01:38:16.188Z,15.1
2022-09-01T01:39:17.717Z,15
2022-09-01T01:40:08.900Z,15
2022-09-01T01:41:16.759Z,15.1
2022-09-01T01:42:11.934Z,15.1
2022-09-01T01:43:16.003Z,15.1
2022-09-01T01:44:06.215Z,15.1
2022-09-01T01:45:11.697Z,15.1
2022-09-01T01:46:14.135Z,15
2022-09-01T01:47:14.322Z,15
2022-09-01T01:48:12.406Z,15
2022-09-01T01:49:15.814Z,15
2022-09-01T01:50:15.191Z,15
2022-09-01T01:51:13.927Z,15.1
2022-09-01T01:52:15.300Z,15.1
2022-09-01T01:53:15.219Z,15.1
2022-09-01T01:54:15.555Z,15.1
2022-09-01T01:55:10.238Z,15.1
2022-09-01T01:56:14.752Z,15.1
2022-09-01T01:57:16.600Z,15.1
2022-09-01T01:58:13.807Z,15.1
2022-09-01T01:59:12.852Z,15.1
2022-09-01T02:00:14.659Z,15.1
2022-09-01T02:01:11.174Z,15.1
2022-09-01T02:02:13.484Z,15.1
2022-09-01T02:03:13.482Z,15.1
2022-09-01T02:04:14.537Z,15.1
2022-09-01T02:05:14.233Z,15.1
2022-09-01T02:06:14.409Z,15.1
2022-09-01T02:07:16.967Z,15.1
2022-09-01T02:08:09.968Z,15.1
2022-09-01T02:09:15.711Z,15.1
2022-09-01T02:10:09.596Z,15.1
2022-09-01T02:11:16.819Z,15.1
2022-09-01T02:12:09.594Z,15.1
2022-09-01T02:13:15.238Z,15
2022-09-01T02:14:16.567Z,15
2022-09-01T02:15:11.903Z,15
2022-09-01T02:16:12.581Z,15
2022-09-01T02:17:07.677Z,15
2022-09-01T02:18:23.863Z,15
2022-09-01T02:19:06.923Z,15
2022-09-01T02:20:14.802Z,15
2022-09-01T02:21:20.430Z,15
2022-09-01T02:22:18.323Z,15
2022-09-01T02:23:15.118Z,15
2022-09-01T02:24:15.769Z,15
2022-09-01T02:25:12.762Z,15
2022-09-01T02:26:22.407Z,15
2022-09-01T02:27:15.143Z,15
2022-09-01T02:28:15.649Z,14.9
2022-09-01T02:29:14.291Z,15
2022-09-01T02:30:16.833Z,15.1
2022-09-01T02:31:13.868Z,15.1
2022-09-01T02:32:15.165Z,15.1
2022-09-01T02:33:16.070Z,15
2022-09-01T02:34:07.488Z,15
2022-09-01T02:35:18.512Z,15
2022-09-01T02:36:08.969Z,15
2022-09-01T02:37:16.372Z,15
2022-09-01T02:38:08.301Z,15
2022-09-01T02:39:19.225Z,15
2022-09-01T02:40:09.455Z,15
2022-09-01T02:41:16.177Z,15
2022-09-01T02:42:14.569Z,15
2022-09-01T02:43:13.248Z,15
2022-09-01T02:44:06.836Z,15
2022-09-01T02:45:16.019Z,15
2022-09-01T02:46:13.445Z,15.1
2022-09-01T02:47:08.635Z,15
2022-09-01T02:48:14.735Z,15
2022-09-01T02:49:09.689Z,15
2022-09-01T02:50:09.952Z,15
2022-09-01T02:51:13.873Z,15
2022-09-01T02:52:13.773Z,15
2022-09-01T02:53:13.117Z,15
2022-09-01T02:54:15.519Z,15
2022-09-01T02:55:16.013Z,15
2022-09-01T02:56:15.779Z,15
2022-09-01T02:57:12.697Z,15
2022-09-01T02:58:19.414Z,14.9
2022-09-01T02:59:14.874Z,14.9
2022-09-01T03:00:13.974Z,14.9
2022-09-01T03:01:17.377Z,14.9
2022-09-01T03:02:15.571Z,14.9
2022-09-01T03:03:19.232Z,14.9
2022-09-01T03:04:15.032Z,15.1
2022-09-01T03:05:16.388Z,15.1
2022-09-01T03:06:12.231Z,15.1
2022-09-01T03:07:14.245Z,14.9
2022-09-01T03:08:09.672Z,14.9
2022-09-01T03:09:07.372Z,14.9
2022-09-01T03:10:11.190Z,15
2022-09-01T03:11:17.437Z,15.1
2022-09-01T03:12:08.404Z,15.1
2022-09-01T03:13:16.701Z,14.9
2022-09-01T03:14:14.553Z,15
2022-09-01T03:15:12.202Z,15
2022-09-01T03:16:19.424Z,15
2022-09-01T03:17:07.927Z,15
2022-09-01T03:18:14.879Z,14.9
2022-09-01T03:19:20.218Z,14.9
2022-09-01T03:20:11.429Z,14.9
2022-09-01T03:21:13.298Z,15
2022-09-01T03:22:13.466Z,15.1
2022-09-01T03:23:13.994Z,15.1
2022-09-01T03:24:14.803Z,15.1
2022-09-01T03:25:11.482Z,15
2022-09-01T03:26:14.352Z,15
2022-09-01T03:27:13.780Z,15
2022-09-01T03:28:17.086Z,15.1
2022-09-01T03:29:16.724Z,15
2022-09-01T03:30:06.482Z,15
2022-09-01T03:31:14.804Z,14.9
2022-09-01T03:32:14.023Z,14.9
2022-09-01T03:33:13.615Z,14.9
2022-09-01T03:34:12.549Z,14.9
2022-09-01T03:35:17.331Z,14.9
2022-09-01T03:36:19.660Z,14.9
2022-09-01T03:37:06.889Z,14.9
2022-09-01T03:38:12.769Z,15.1
2022-09-01T03:39:21.021Z,15.1
2022-09-01T03:40:13.521Z,15
2022-09-01T03:41:14.706Z,15
2022-09-01T03:42:13.489Z,14.9
2022-09-01T03:43:13.026Z,15
2022-09-01T03:44:16.347Z,15
2022-09-01T03:45:15.516Z,15
2022-09-01T03:46:16.159Z,15
2022-09-01T03:47:16.213Z,15.1
2022-09-01T03:48:13.553Z,15.1
2022-09-01T03:49:11.824Z,15
2022-09-01T03:50:14.361Z,14.9
2022-09-01T03:51:08.462Z,15
2022-09-01T03:52:15.880Z,15.1
2022-09-01T03:53:11.656Z,15
2022-09-01T03:54:15.844Z,15
2022-09-01T03:55:07.168Z,15.1
2022-09-01T03:56:12.103Z,14.9
2022-09-01T03:57:16.500Z,14.9
2022-09-01T03:58:14.459Z,14.9
2022-09-01T03:59:16.221Z,15
2022-09-01T04:00:11.577Z,15
2022-09-01T04:01:18.432Z,14.9
2022-09-01T04:02:14.182Z,14.9
2022-09-01T04:03:13.755Z,15
2022-09-01T04:04:08.188Z,14.9
2022-09-01T04:05:19.059Z,14.9
2022-09-01T04:06:06.820Z,14.9
2022-09-01T04:07:21.468Z,14.9
2022-09-01T04:08:12.812Z,14.9
2022-09-01T04:09:17.012Z,14.9
2022-09-01T04:10:15.211Z,14.9
2022-09-01T04:11:16.216Z,14.9
2022-09-01T04:12:10.771Z,14.9
2022-09-01T04:13:17.513Z,14.9
2022-09-01T04:14:12.867Z,14.9
2022-09-01T04:15:13.997Z,14.9
2022-09-01T04:16:08.312Z,14.9
2022-09-01T04:17:26.377Z,14.9
2022-09-01T04:18:06.494Z,14.9
2022-09-01T04:19:15.302Z,14.9
2022-09-01T04:20:14.190Z,14.9
2022-09-01T04:21:11.935Z,14.8
2022-09-01T04:22:14.571Z,14.8
2022-09-01T04:23:12.601Z,14.9
2022-09-01T04:24:19.362Z,14.8
2022-09-01T04:25:18.284Z,14.8
2022-09-01T04:26:07.242Z,14.8
2022-09-01T04:27:10.788Z,14.8
2022-09-01T04:28:14.739Z,14.8
2022-09-01T04:29:09.646Z,14.8
2022-09-01T04:30:14.589Z,14.8
2022-09-01T04:31:15.204Z,14.9
2022-09-01T04:32:15.617Z,14.9
2022-09-01T04:33:14.735Z,14.9
2022-09-01T04:34:18.676Z,14.9
2022-09-01T04:35:11.425Z,14.9
2022-09-01T04:36:14.960Z,14.9
2022-09-01T04:37:13.067Z,14.8
2022-09-01T04:38:16.569Z,14.8
2022-09-01T04:39:07.151Z,14.8
2022-09-01T04:40:11.106Z,14.9
2022-09-01T04:41:09.613Z,14.9
2022-09-01T04:42:13.599Z,14.8
2022-09-01T04:43:12.356Z,14.8
2022-09-01T04:44:15.904Z,14.8
2022-09-01T04:45:20.492Z,14.8
2022-09-01T04:46:19.195Z,14.9
2022-09-01T04:47:11.682Z,14.9
2022-09-01T04:48:14.468Z,14.8
2022-09-01T04:49:17.054Z,14.8
2022-09-01T04:50:11.044Z,14.8
2022-09-01T04:51:13.734Z,14.8
2022-09-01T04:52:17.287Z,14.8
2022-09-01T04:53:15.867Z,14.8
2022-09-01T04:54:16.373Z,14.8
2022-09-01T04:55:16.304Z,14.8
2022-09-01T04:56:14.012Z,14.8
2022-09-01T04:57:13.236Z,14.8
2022-09-01T04:58:14.705Z,14.8
2022-09-01T04:59:14.212Z,14.8
2022-09-01T05:00:14.518Z,14.8
2022-09-01T05:01:15.541Z,14.8
2022-09-01T05:02:13.243Z,14.8
2022-09-01T05:03:16.908Z,14.9
2022-09-01T05:04:14.699Z,14.8
2022-09-01T05:05:13.447Z,14.8
2022-09-01T05:06:07.402Z,14.8
2022-09-01T05:07:15.727Z,14.9
2022-09-01T05:08:07.096Z,14.9
2022-09-01T05:09:18.935Z,14.8
2022-09-01T05:10:06.676Z,14.8
2022-09-01T05:11:13.118Z,14.8
2022-09-01T05:12:20.167Z,14.9
2022-09-01T05:13:14.352Z,14.9
2022-09-01T05:14:13.830Z,14.9
2022-09-01T05:15:12.088Z,14.9
2022-09-01T05:16:16.034Z,14.9
2022-09-01T05:17:14.282Z,14.9
2022-09-01T05:18:13.376Z,14.9
2022-09-01T05:19:15.383Z,14.9
2022-09-01T05:20:21.545Z,14.8
2022-09-01T05:21:10.243Z,14.8
2022-09-01T05:22:11.753Z,14.8
2022-09-01T05:23:13.940Z,14.9
2022-09-01T05:24:15.718Z,14.9
2022-09-01T05:25:14.334Z,14.9
2022-09-01T05:26:16.250Z,14.9
2022-09-01T05:27:13.517Z,14.9
2022-09-01T05:28:15.925Z,14.9
2022-09-01T05:29:13.568Z,14.9
2022-09-01T05:30:15.990Z,14.9
2022-09-01T05:31:15.549Z,14.9
2022-09-01T05:32:13.482Z,14.9
2022-09-01T05:33:12.607Z,14.9
2022-09-01T05:34:18.286Z,14.9
2022-09-01T05:35:13.124Z,14.9
2022-09-01T05:36:15.961Z,14.9
2022-09-01T05:37:16.791Z,14.9
2022-09-01T05:38:13.530Z,14.9
2022-09-01T05:39:13.440Z,15.1
2022-09-01T05:40:14.500Z,15.1
2022-09-01T05:41:16.266Z,15.1
2022-09-01T05:42:14.379Z,15.1
2022-09-01T05:43:13.455Z,15.1
2022-09-01T05:44:12.235Z,15.1
2022-09-01T05:45:15.182Z,14.9
2022-09-01T05:46:16.019Z,14.9
2022-09-01T05:47:08.937Z,14.9
2022-09-01T05:48:16.624Z,14.9
2022-09-01T05:49:15.154Z,14.9
2022-09-01T05:50:18.711Z,14.9
2022-09-01T05:51:45.369Z,14.9
2022-09-01T05:52:12.661Z,14.9
2022-09-01T05:53:18.874Z,14.9
2022-09-01T05:54:12.630Z,14.9
2022-09-01T05:55:13.644Z,14.9
2022-09-01T05:56:08.922Z,14.9
2022-09-01T05:57:37.468Z,15.1
2022-09-01T05:58:14.860Z,15.1
2022-09-01T05:59:30.640Z,15.1
2022-09-01T06:00:12.591Z,15.1
2022-09-01T06:01:13.044Z,15.1
2022-09-01T06:02:13.007Z,15.1
2022-09-01T06:03:14.471Z,15.1
2022-09-01T06:04:11.534Z,15.1
2022-09-01T06:05:15.328Z,15.1
2022-09-01T06:06:12.933Z,15.1
2022-09-01T06:08:07.455Z,15.1
2022-09-01T06:09:09.221Z,15.1
2022-09-01T06:10:14.926Z,15.2
2022-09-01T06:11:14.036Z,15.3
2022-09-01T06:12:14.248Z,15.2
2022-09-01T06:13:16.488Z,15.2
2022-09-01T06:14:13.623Z,15.1
2022-09-01T06:15:10.614Z,15.1
2022-09-01T06:16:14.622Z,15.2
2022-09-01T06:17:14.392Z,15.3
2022-09-01T06:18:14.349Z,15.3
2022-09-01T06:19:16.723Z,15.2
2022-09-01T06:20:15.356Z,15.2
2022-09-01T06:21:10.204Z,15.4
2022-09-01T06:22:17.491Z,15.4
2022-09-01T06:23:12.935Z,15.3
2022-09-01T06:24:14.862Z,15.3
2022-09-01T06:25:13.068Z,15.3
2022-09-01T06:26:12.539Z,15.4
2022-09-01T06:27:13.608Z,15.4
2022-09-01T06:28:12.374Z,15.4
2022-09-01T06:29:08.141Z,15.4
2022-09-01T06:30:17.545Z,15.3
2022-09-01T06:31:16.744Z,15.3
2022-09-01T06:32:07.832Z,15.4
2022-09-01T06:33:17.249Z,15.3
2022-09-01T06:34:16.406Z,15.3
2022-09-01T06:35:16.896Z,15.3
2022-09-01T06:36:12.250Z,15.3
2022-09-01T06:37:18.989Z,15.4
2022-09-01T06:38:07.592Z,15.4
2022-09-01T06:39:16.080Z,15.4
2022-09-01T06:40:15.246Z,15.6
2022-09-01T06:41:13.554Z,15.6
2022-09-01T06:42:12.551Z,15.6
2022-09-01T06:43:16.636Z,15.7
2022-09-01T06:44:18.484Z,15.8
2022-09-01T06:45:13.716Z,15.8
2022-09-01T06:46:09.743Z,15.8
2022-09-01T06:47:14.729Z,15.8
2022-09-01T06:48:15.628Z,15.8
2022-09-01T06:49:17.159Z,15.9
2022-09-01T06:50:13.857Z,15.9
2022-09-01T06:51:24.704Z,15.9
2022-09-01T06:52:15.282Z,15.9
2022-09-01T06:53:38.898Z,15.9
2022-09-01T06:54:20.765Z,15.9
2022-09-01T06:55:17.617Z,15.9
2022-09-01T06:56:08.670Z,15.9
2022-09-01T06:58:15.157Z,16
2022-09-01T06:58:23.620Z,16
2022-09-01T06:59:12.634Z,15.9
2022-09-01T07:00:21.333Z,15.8
2022-09-01T07:01:07.432Z,15.8
2022-09-01T07:02:17.365Z,15.8
2022-09-01T07:03:14.504Z,15.8
2022-09-01T07:04:17.110Z,15.8
2022-09-01T07:06:04.658Z,15.9
2022-09-01T07:06:07.297Z,15.9
2022-09-01T07:08:07.564Z,15.8
2022-09-01T07:08:13.089Z,15.9
2022-09-01T07:10:23.709Z,16
2022-09-01T07:13:15.173Z,16.3
2022-09-01T07:14:20.661Z,16.3
2022-09-01T07:16:32.278Z,16.4
2022-09-01T07:16:51.223Z,16.6
2022-09-01T07:17:30.831Z,16.8
2022-09-01T07:18:16.049Z,16.8
2022-09-01T07:19:15.375Z,16.8
2022-09-01T07:20:33.230Z,17.1
2022-09-01T07:23:03.179Z,17.1
2022-09-01T07:25:16.694Z,16.6
2022-09-01T07:27:13.616Z,16.6
2022-09-01T07:28:15.603Z,16.5
2022-09-01T07:29:14.577Z,16.6
2022-09-01T07:30:18.051Z,16.6
2022-09-01T07:32:49.895Z,16.7
2022-09-01T07:33:44.400Z,16.7
2022-09-01T07:34:46.085Z,16.7
2022-09-01T07:35:16.809Z,16.7
2022-09-01T07:39:48.287Z,16.8
2022-09-01T07:39:54.984Z,16.6
2022-09-01T07:43:06.929Z,16.2
2022-09-01T07:43:18.014Z,16.9
2022-09-01T07:44:08.509Z,16.8
2022-09-01T07:45:47.124Z,16.6
2022-09-01T07:48:00.469Z,16.6
2022-09-01T07:50:40.135Z,16.9
2022-09-01T07:51:37.969Z,17
2022-09-01T07:51:41.080Z,17
2022-09-01T07:52:27.102Z,17.2
2022-09-01T07:53:08.365Z,17.2
2022-09-01T07:54:16.297Z,17.4
2022-09-01T07:55:07.224Z,17.4
2022-09-01T07:56:17.222Z,17.4
2022-09-01T07:57:12.938Z,17.4
2022-09-01T07:58:13.930Z,17.3
2022-09-01T07:59:19.494Z,17.3
2022-09-01T08:00:12.659Z,17.1
2022-09-01T08:01:15.578Z,16.9
2022-09-01T08:02:13.957Z,16.9
2022-09-01T08:03:14.988Z,16.8
2022-09-01T08:04:12.276Z,16.9
2022-09-01T08:05:16.775Z,16.8
2022-09-01T08:06:15.637Z,17
2022-09-01T08:07:19.702Z,17
2022-09-01T08:08:31.824Z,16.9
2022-09-01T08:09:45.746Z,16.9
2022-09-01T08:11:12.084Z,16.8
2022-09-01T08:12:13.439Z,16.9
2022-09-01T08:13:24.307Z,16.9
2022-09-01T08:14:18.031Z,16.9
2022-09-01T08:16:16.307Z,17.3
2022-09-01T08:16:22.440Z,17.4
2022-09-01T08:17:54.398Z,17.4
2022-09-01T08:18:23.079Z,17.4
2022-09-01T08:19:20.901Z,17.2
2022-09-01T08:20:18.216Z,17.2
2022-09-01T08:21:14.611Z,17.1
2022-09-01T08:22:07.197Z,17.1
2022-09-01T08:23:16.606Z,17.3
2022-09-01T08:24:09.577Z,17.3
2022-09-01T08:25:15.622Z,17.6
2022-09-01T08:26:15.112Z,17.6
2022-09-01T08:27:13.043Z,17.6
2022-09-01T08:28:14.138Z,17.8
2022-09-01T08:29:14.908Z,17.8
2022-09-01T08:30:15.700Z,18
2022-09-01T08:31:15.593Z,17.9
2022-09-01T08:32:15.102Z,17.9
2022-09-01T08:33:16.111Z,17.9
2022-09-01T08:34:10.495Z,17.9
2022-09-01T08:35:15.458Z,18.2
2022-09-01T08:36:14.308Z,18.6
2022-09-01T08:37:15.268Z,18.8
2022-09-01T08:38:12.591Z,18.8
2022-09-01T08:39:08.162Z,19.2
2022-09-01T08:40:10.974Z,19.2
2022-09-01T08:41:16.802Z,19.2
2022-09-01T08:42:15.827Z,19.2
2022-09-01T08:43:09.110Z,18.9
2022-09-01T08:44:16.781Z,19.1
2022-09-01T08:45:14.904Z,19
2022-09-01T08:46:17.316Z,19
2022-09-01T08:47:35.789Z,18.8
2022-09-01T08:49:26.378Z,18.8
2022-09-01T08:49:44.391Z,18.9
2022-09-01T08:51:22.883Z,19.3
2022-09-01T08:52:08.072Z,19.3
2022-09-01T08:53:14.131Z,19.8
2022-09-01T08:54:16.367Z,19.8
2022-09-01T08:55:13.594Z,19.3
2022-09-01T08:56:14.543Z,19.3
2022-09-01T08:57:15.198Z,19.3
2022-09-01T08:58:16.627Z,19.3
2022-09-01T08:59:16.953Z,19.5
2022-09-01T09:00:16.110Z,19.3
2022-09-01T09:01:07.914Z,19.3
2022-09-01T09:02:14.939Z,18.8
2022-09-01T09:03:17.916Z,19
2022-09-01T09:04:13.073Z,19
2022-09-01T09:05:25.516Z,19
2022-09-01T09:06:14.092Z,18.7
2022-09-01T09:07:17.683Z,18.5
2022-09-01T09:08:16.816Z,18.6
2022-09-01T09:09:15.220Z,18.6
2022-09-01T09:10:08.076Z,18.6
2022-09-01T09:11:17.238Z,18.5
2022-09-01T09:12:14.857Z,18.6
2022-09-01T09:13:12.982Z,18.6
2022-09-01T09:14:09.103Z,18.6
2022-09-01T09:15:15.861Z,19.4
2022-09-01T09:16:14.133Z,19.7
2022-09-01T09:17:16.435Z,19.7
2022-09-01T09:19:15.210Z,19.3
2022-09-01T09:20:14.918Z,19.2
2022-09-01T09:21:17.219Z,19.2
2022-09-01T09:22:13.207Z,19.3
2022-09-01T09:23:14.123Z,19.4
2022-09-01T09:24:14.818Z,19.3
2022-09-01T09:25:17.414Z,19.3
2022-09-01T09:26:22.028Z,19.1
2022-09-01T09:27:11.673Z,19.1
2022-09-01T09:28:16.830Z,19.2
2022-09-01T09:29:14.627Z,19.2
2022-09-01T09:30:17.280Z,19.3
2022-09-01T09:31:14.859Z,19.3
2022-09-01T09:34:00.124Z,19.9
2022-09-01T09:35:16.111Z,20.3
2022-09-01T09:36:07.924Z,20.3
2022-09-01T09:37:15.958Z,20.1
2022-09-01T09:38:09.302Z,20.1
2022-09-01T09:39:18.892Z,19.7
2022-09-01T09:40:14.695Z,19.8
2022-09-01T09:41:29.043Z,19.8
2022-09-01T09:42:19.589Z,19.6
2022-09-01T09:43:15.489Z,19.6
2022-09-01T09:44:15.672Z,19.8
2022-09-01T09:45:16.031Z,19.8
2022-09-01T09:46:27.859Z,19.6
2022-09-01T09:47:47.212Z,19.6
2022-09-01T09:49:15.904Z,19.2
2022-09-01T09:50:09.670Z,19.2
2022-09-01T09:51:14.404Z,19.1
2022-09-01T09:52:18.528Z,19.1
2022-09-01T09:53:14.078Z,19.1
2022-09-01T09:54:08.103Z,19.1
2022-09-01T09:55:19.602Z,19.3
2022-09-01T09:56:09.507Z,19.3
2022-09-01T09:57:13.864Z,19.3
2022-09-01T09:58:13.629Z,19.3
2022-09-01T09:59:15.402Z,19.3
2022-09-01T10:00:15.526Z,19.3
2022-09-01T10:01:17.824Z,19.4
2022-09-01T10:02:13.412Z,19.4
2022-09-01T10:03:16.760Z,19.1
2022-09-01T10:04:15.059Z,19.1
2022-09-01T10:05:13.107Z,19.1
2022-09-01T10:06:15.554Z,19.1
2022-09-01T10:07:11.932Z,19.1
2022-09-01T10:08:14.124Z,18.9
2022-09-01T10:09:21.897Z,18.8
2022-09-01T10:10:17.005Z,18.9
2022-09-01T10:11:15.063Z,18.8
2022-09-01T10:12:10.122Z,18.8
2022-09-01T10:13:20.490Z,18.9
2022-09-01T10:15:17.893Z,18.8
2022-09-01T10:16:15.574Z,18.8
2022-09-01T10:17:17.849Z,18.8
2022-09-01T10:18:32.802Z,18.8
2022-09-01T10:19:20.317Z,18.8
2022-09-01T10:20:15.597Z,18.8
2022-09-01T10:21:07.207Z,18.9
2022-09-01T10:22:17.220Z,18.9
2022-09-01T10:23:19.607Z,19.1
2022-09-01T10:25:05.474Z,19.1
2022-09-01T10:26:21.042Z,18.9
2022-09-01T10:27:18.604Z,18.9
2022-09-01T10:29:07.639Z,18.9
2022-09-01T10:30:21.708Z,18.9
2022-09-01T10:31:10.938Z,18.9
2022-09-01T10:32:55.562Z,19.1
2022-09-01T10:33:24.299Z,19.1
2022-09-01T10:34:19.287Z,18.9
2022-09-01T10:35:18.225Z,18.8
2022-09-01T10:36:16.903Z,18.8
2022-09-01T10:37:20.378Z,18.8
2022-09-01T10:38:07.835Z,18.8
2022-09-01T10:39:30.928Z,18.8
2022-09-01T10:40:08.570Z,18.8
2022-09-01T10:41:19.078Z,18.6
2022-09-01T10:42:15.020Z,18.6
2022-09-01T10:43:16.722Z,18.6
2022-09-01T10:44:15.544Z,18.5
2022-09-01T10:45:14.189Z,18.4
2022-09-01T10:47:18.723Z,18.3
2022-09-01T10:49:14.241Z,18.3
2022-09-01T10:50:15.576Z,18.3
2022-09-01T10:51:21.079Z,18.3
2022-09-01T10:52:18.391Z,18.4
2022-09-01T10:53:19.407Z,18.4
2022-09-01T10:54:13.452Z,18.4
2022-09-01T10:55:13.387Z,18.4
2022-09-01T10:56:42.918Z,18.4
2022-09-01T10:57:17.926Z,18.4
2022-09-01T10:59:56.489Z,18.4
2022-09-01T10:59:57.694Z,18.4
2022-09-01T11:01:10.492Z,18.5
2022-09-01T11:01:47.673Z,18.6
2022-09-01T11:02:42.393Z,18.7
2022-09-01T11:03:53.880Z,18.7
2022-09-01T11:05:09.280Z,18.6
2022-09-01T11:06:17.415Z,18.5
2022-09-01T11:07:17.315Z,18.5
2022-09-01T11:08:22.988Z,18.6
2022-09-01T11:09:15.248Z,18.7
2022-09-01T11:10:33.971Z,18.7
2022-09-01T11:11:13.596Z,18.8
2022-09-01T11:12:16.564Z,18.8
2022-09-01T11:13:08.516Z,18.8
2022-09-01T11:14:17.994Z,18.8
2022-09-01T11:15:13.757Z,18.9
2022-09-01T11:16:14.422Z,19
2022-09-01T11:17:13.673Z,19.1
2022-09-01T11:18:14.587Z,19.1
2022-09-01T11:19:20.208Z,19.3
2022-09-01T11:20:14.337Z,19.3
2022-09-01T11:21:17.032Z,19.3
2022-09-01T11:22:08.423Z,19.5
2022-09-01T11:23:17.610Z,19.5
2022-09-01T11:24:14.072Z,19.5
2022-09-01T11:25:16.915Z,19.4
2022-09-01T11:26:30.138Z,19.4
2022-09-01T11:27:14.921Z,19.5
2022-09-01T11:28:13.028Z,19.5
2022-09-01T11:29:16.175Z,19.6
2022-09-01T11:30:09.414Z,19.6
2022-09-01T11:31:16.403Z,19.9
2022-09-01T11:32:20.702Z,20
2022-09-01T11:33:13.004Z,20
2022-09-01T11:34:07.059Z,20.2
2022-09-01T11:35:15.420Z,20.2
2022-09-01T11:36:14.598Z,20
2022-09-01T11:37:14.846Z,19.9
2022-09-01T11:38:13.370Z,20
2022-09-01T11:39:22.922Z,19.9
2022-09-01T11:40:08.971Z,19.9
2022-09-01T11:41:12.865Z,19.9
2022-09-01T11:42:13.223Z,19.8
2022-09-01T11:43:18.730Z,19.9
2022-09-01T11:44:12.341Z,19.9
2022-09-01T11:45:24.129Z,20.6
2022-09-01T11:46:15.619Z,20.6
2022-09-01T11:47:18.841Z,20.4
2022-09-01T11:48:07.686Z,20.4
2022-09-01T11:49:15.391Z,20.3
2022-09-01T11:50:12.260Z,20.3
2022-09-01T11:51:19.018Z,20.1
2022-09-01T11:52:09.142Z,19.9
2022-09-01T11:53:13.906Z,19.8
2022-09-01T11:54:11.881Z,19.8
2022-09-01T11:55:15.727Z,19.8
2022-09-01T11:56:07.124Z,20.4
2022-09-01T11:57:10.282Z,20.4
2022-09-01T11:58:19.714Z,20.4
2022-09-01T11:59:14.469Z,20.4
2022-09-01T12:00:13.399Z,20.5
2022-09-01T12:01:13.867Z,20.5
2022-09-01T12:02:12.278Z,20.8
2022-09-01T12:03:14.789Z,21.4
2022-09-01T12:04:16.023Z,21.4
2022-09-01T12:05:14.212Z,21.4
2022-09-01T12:06:19.572Z,21.2
2022-09-01T12:07:13.127Z,21.2
2022-09-01T12:08:14.370Z,21.1
2022-09-01T12:09:19.162Z,21.3
2022-09-01T12:10:13.742Z,21.3
2022-09-01T12:11:16.424Z,21.4
2022-09-01T12:12:14.520Z,21.4
2022-09-01T12:13:14.110Z,21.4
2022-09-01T12:14:16.028Z,21.4
2022-09-01T12:15:15.894Z,21.4
2022-09-01T12:16:25.755Z,21.8
2022-09-01T12:17:16.144Z,21.7
2022-09-01T12:18:11.819Z,21.6
2022-09-01T12:19:15.465Z,21.3
2022-09-01T12:20:06.574Z,21.3
2022-09-01T12:21:13.809Z,21.3
2022-09-01T12:22:15.157Z,21.6
2022-09-01T12:23:12.806Z,21.5
2022-09-01T12:24:11.915Z,21.3
2022-09-01T12:25:11.395Z,21.3
2022-09-01T12:26:12.956Z,21.6
2022-09-01T12:27:14.895Z,21.6
2022-09-01T12:28:18.798Z,21.6
2022-09-01T12:29:15.198Z,21.1
2022-09-01T12:30:13.328Z,21.1
2022-09-01T12:31:13.869Z,21.2
2022-09-01T12:32:16.688Z,20.9
2022-09-01T12:33:40.554Z,20.9
2022-09-01T12:34:15.705Z,21.4
2022-09-01T12:35:15.441Z,21.4
2022-09-01T12:36:14.019Z,21.6
2022-09-01T12:37:10.393Z,21.6
2022-09-01T12:38:15.406Z,22.1
2022-09-01T12:39:17.032Z,22.1
2022-09-01T12:40:09.940Z,22.1
2022-09-01T12:42:09.465Z,21.8
2022-09-01T12:43:16.011Z,21.8
2022-09-01T12:44:14.616Z,21.8
2022-09-01T12:45:14.249Z,21.3
2022-09-01T12:46:17.462Z,21.1
2022-09-01T12:47:15.844Z,21.1
2022-09-01T12:48:16.905Z,21.1
2022-09-01T12:49:25.093Z,21.3
2022-09-01T12:50:09.240Z,21.3
2022-09-01T12:51:14.483Z,21.6
2022-09-01T12:52:19.820Z,21.3
2022-09-01T12:53:17.075Z,21
2022-09-01T12:54:13.848Z,21
2022-09-01T12:55:13.812Z,20.7
2022-09-01T12:56:16.107Z,20.6
2022-09-01T12:57:13.345Z,20.6
2022-09-01T12:58:15.900Z,20.4
2022-09-01T12:59:38.490Z,20.4
2022-09-01T13:00:09.632Z,20.3
2022-09-01T13:01:20.888Z,20.3
2022-09-01T13:02:15.966Z,20.3
2022-09-01T13:03:13.823Z,20.3
2022-09-01T13:04:17.165Z,20.3
2022-09-01T13:05:16.432Z,20.2
2022-09-01T13:06:13.501Z,20.2
2022-09-01T13:07:14.317Z,20.1
2022-09-01T13:08:12.485Z,20.1
2022-09-01T13:09:15.009Z,20.4
2022-09-01T13:10:13.526Z,20.4
2022-09-01T13:11:15.127Z,20.8
2022-09-01T13:12:14.964Z,20.8
2022-09-01T13:13:13.632Z,20.7
2022-09-01T13:14:14.667Z,20.8
2022-09-01T13:15:19.749Z,20.8
2022-09-01T13:16:10.591Z,20.9
2022-09-01T13:17:18.365Z,20.8
2022-09-01T13:18:15.978Z,20.8
2022-09-01T13:19:27.322Z,20.6
2022-09-01T13:20:12.708Z,20.7
2022-09-01T13:21:07.733Z,20.7
2022-09-01T13:22:15.635Z,21.1
2022-09-01T13:23:13.858Z,21.1
2022-09-01T13:24:14.725Z,21.1
2022-09-01T13:25:17.305Z,21.1
2022-09-01T13:26:08.914Z,21.1
2022-09-01T13:27:29.349Z,21.3
2022-09-01T13:28:14.055Z,21.3
2022-09-01T13:29:15.199Z,20.9
2022-09-01T13:30:08.010Z,20.9
2022-09-01T13:32:21.895Z,21.6
2022-09-01T13:32:24.843Z,21.8
2022-09-01T13:33:27.926Z,21.8
2022-09-01T13:34:24.464Z,21.8
2022-09-01T13:35:14.379Z,21.8
2022-09-01T13:36:50.290Z,21.9
2022-09-01T13:38:13.638Z,22.1
2022-09-01T13:39:20.812Z,21.7
2022-09-01T13:40:10.161Z,21.7
2022-09-01T13:41:17.392Z,21
2022-09-01T13:42:13.644Z,20.9
2022-09-01T13:43:15.266Z,20.8
2022-09-01T13:44:12.970Z,20.9
2022-09-01T13:45:12.259Z,21.2
2022-09-01T13:46:14.884Z,21.1
2022-09-01T13:48:17.551Z,21.1
2022-09-01T13:48:21.724Z,20.9
2022-09-01T13:50:06.278Z,20.9
2022-09-01T13:50:23.777Z,20.7
2022-09-01T13:51:23.004Z,20.7
2022-09-01T13:52:13.646Z,20.7
2022-09-01T13:53:13.403Z,20.7
2022-09-01T13:54:12.190Z,21.1